createdAt,value
2019-04-21T00:00:35.528Z,19.07
2019-04-21T00:03:50.123Z,16.07
2019-04-21T00:07:14.461Z,18.40
2019-04-21T00:10:28.437Z,13.27
2019-04-21T00:13:27.988Z,14.90
2019-04-21T00:19:39.581Z,18.37
2019-04-21T00:22:58.808Z,16.53
2019-04-21T00:26:08.974Z,22.33
2019-04-21T00:29:31.418Z,16.90
2019-04-21T00:32:30.509Z,17.60
2019-04-21T00:35:27.461Z,13.87
2019-04-21T00:39:06.664Z,15.50
2019-04-21T00:41:59.614Z,12.83
2019-04-21T00:45:10.743Z,11.60
2019-04-21T00:48:23.621Z,17.93
2019-04-21T00:54:49.864Z,12.83
2019-04-21T00:57:58.575Z,15.80
2019-04-21T01:01:02.310Z,15.60
2019-04-21T01:04:13.946Z,12.20
2019-04-21T01:07:20.764Z,13.07
2019-04-21T01:10:24.456Z,13.63
2019-04-21T01:13:41.660Z,13.57
2019-04-21T01:22:43.241Z,14.07
2019-04-21T01:26:00.800Z,15.77
2019-04-21T01:29:15.778Z,12.43
2019-04-21T01:32:29.718Z,18.77
2019-04-21T01:35:40.361Z,13.10
2019-04-21T01:44:59.742Z,11.17
2019-04-21T01:48:06.555Z,13.43
2019-04-21T01:51:17.118Z,11.83
2019-04-21T01:54:35.278Z,14.87
2019-04-21T01:57:42.619Z,14.30
2019-04-21T02:04:24.025Z,12.43
2019-04-21T02:07:29.727Z,16.73
2019-04-21T02:10:42.317Z,11.80
2019-04-21T02:13:48.554Z,15.00
2019-04-21T02:16:54.193Z,13.73
2019-04-21T02:19:57.613Z,21.87
2019-04-21T02:26:23.136Z,13.77
2019-04-21T02:29:32.955Z,10.23
2019-04-21T02:32:47.955Z,13.03
2019-04-21T02:36:04.084Z,12.30
2019-04-21T02:39:16.446Z,9.47
2019-04-21T02:42:11.519Z,10.20
2019-04-21T02:51:54.221Z,10.77
2019-04-21T03:01:12.496Z,14.40
2019-04-21T03:04:32.194Z,14.83
2019-04-21T03:07:32.233Z,16.63
2019-04-21T03:14:05.967Z,16.20
2019-04-21T03:17:05.384Z,15.00
2019-04-21T03:20:18.966Z,11.83
2019-04-21T03:26:41.613Z,16.17
2019-04-21T03:29:48.295Z,12.83
2019-04-21T03:33:32.485Z,11.60
2019-04-21T03:39:01.147Z,14.23
2019-04-21T03:42:33.770Z,14.40
2019-04-21T04:02:03.908Z,17.37
2019-04-21T04:05:13.085Z,13.37
2019-04-21T04:08:44.786Z,12.20
2019-04-21T04:11:37.765Z,14.30
2019-04-21T04:14:47.353Z,12.97
2019-04-21T04:17:46.815Z,11.03
2019-04-21T04:21:06.063Z,14.77
2019-04-21T04:27:35.317Z,13.37
2019-04-21T04:36:57.034Z,13.07
2019-04-21T04:40:10.000Z,13.07
2019-04-21T04:43:44.610Z,12.20
2019-04-21T04:46:26.749Z,10.17
2019-04-21T04:49:43.431Z,19.77
2019-04-21T04:52:36.958Z,14.10
2019-04-21T04:55:48.042Z,17.93
2019-04-21T05:02:28.125Z,14.73
2019-04-21T05:08:39.454Z,11.47
2019-04-21T05:21:04.337Z,14.80
2019-04-21T05:23:55.776Z,14.50
2019-04-21T05:27:08.659Z,17.17
2019-04-21T05:30:29.576Z,13.97
2019-04-21T05:33:36.464Z,24.10
2019-04-21T05:36:59.533Z,16.97
2019-04-21T05:40:00.593Z,11.23
2019-04-21T05:43:20.229Z,14.20
2019-04-21T05:46:25.234Z,12.27
2019-04-21T05:49:34.091Z,14.13
2019-04-21T05:52:44.961Z,14.63
2019-04-21T05:56:04.892Z,17.87
2019-04-21T05:59:13.721Z,17.37
2019-04-21T06:02:25.667Z,18.77
2019-04-21T06:05:40.743Z,13.40
2019-04-21T06:08:52.542Z,14.10
2019-04-21T06:11:50.974Z,17.10
2019-04-21T06:18:13.027Z,15.73
2019-04-21T06:24:20.507Z,19.03
2019-04-21T06:27:32.497Z,17.83
2019-04-21T06:30:53.101Z,15.73
2019-04-21T06:33:50.841Z,12.93
2019-04-21T06:46:39.379Z,15.40
2019-04-21T06:49:41.183Z,16.83
2019-04-21T06:55:52.068Z,12.93
2019-04-21T06:59:01.458Z,13.97
2019-04-21T07:05:21.696Z,19.53
2019-04-21T07:08:34.486Z,18.07
2019-04-21T07:11:37.891Z,16.10
2019-04-21T07:17:59.519Z,18.10
2019-04-21T07:21:09.583Z,14.30
2019-04-21T07:24:21.736Z,16.83
2019-04-21T07:27:30.289Z,18.00
2019-04-21T07:30:39.217Z,13.22
2019-04-21T07:34:01.626Z,21.15
2019-04-21T07:36:55.846Z,21.90
2019-04-21T07:39:54.978Z,24.43
2019-04-21T07:43:06.630Z,24.72
2019-04-21T07:49:50.146Z,18.92
2019-04-21T07:55:51.266Z,21.25
2019-04-21T07:59:21.247Z,22.02
2019-04-21T08:02:23.370Z,19.70
2019-04-21T08:08:43.543Z,21.85
2019-04-21T08:11:50.574Z,16.23
2019-04-21T08:15:00.790Z,21.50
2019-04-21T08:18:20.571Z,19.32
2019-04-21T08:21:11.246Z,20.43
2019-04-21T08:24:28.559Z,19.23
2019-04-21T08:27:42.459Z,21.27
2019-04-21T08:30:44.438Z,17.40
2019-04-21T08:34:01.730Z,16.57
2019-04-21T08:37:00.205Z,17.82
2019-04-21T08:43:30.688Z,23.05
2019-04-21T08:46:32.938Z,17.30
2019-04-21T08:49:36.374Z,17.55
2019-04-21T08:52:48.859Z,21.10
2019-04-21T08:56:15.044Z,17.25
2019-04-21T08:59:26.822Z,20.02
2019-04-21T09:02:43.106Z,18.70
2019-04-21T09:05:42.641Z,18.77
2019-04-21T09:12:07.255Z,14.30
2019-04-21T09:15:08.051Z,17.48
2019-04-21T09:18:17.516Z,16.95
2019-04-21T09:21:32.722Z,16.85
2019-04-21T09:24:33.339Z,20.48
2019-04-21T09:27:42.195Z,17.70
2019-04-21T09:30:43.702Z,24.72
2019-04-21T09:33:48.753Z,15.25
2019-04-21T09:37:11.908Z,11.22
2019-04-21T09:40:03.052Z,13.35
2019-04-21T09:43:13.440Z,13.15
2019-04-21T09:46:20.753Z,11.93
2019-04-21T09:49:31.713Z,12.28
2019-04-21T09:52:44.855Z,16.35
2019-04-21T09:55:53.667Z,15.58
2019-04-21T09:59:07.237Z,16.73
2019-04-21T10:02:10.011Z,14.23
2019-04-21T10:05:12.359Z,13.25
2019-04-21T10:08:19.615Z,14.60
2019-04-21T10:11:26.890Z,14.53
2019-04-21T10:14:33.903Z,14.80
2019-04-21T10:17:43.943Z,10.32
2019-04-21T10:20:51.325Z,11.48
2019-04-21T10:23:59.776Z,11.00
2019-04-21T10:27:08.603Z,14.50
2019-04-21T10:30:16.362Z,16.30
2019-04-21T10:33:24.195Z,12.50
2019-04-21T10:36:31.272Z,11.97
2019-04-21T10:39:38.257Z,12.30
2019-04-21T10:42:46.011Z,12.40
2019-04-21T10:45:53.323Z,14.80
2019-04-21T10:52:08.905Z,15.00
2019-04-21T10:55:32.037Z,12.82
2019-04-21T10:58:26.711Z,13.93
2019-04-21T11:01:35.258Z,14.30
2019-04-21T11:04:44.028Z,14.38
2019-04-21T11:11:01.636Z,15.23
2019-04-21T11:14:10.465Z,12.58
2019-04-21T11:17:18.225Z,17.52
2019-04-21T11:20:26.907Z,13.30
2019-04-21T11:23:35.222Z,16.07
2019-04-21T11:26:42.624Z,11.80
2019-04-21T11:29:49.580Z,10.80
2019-04-21T11:32:57.141Z,15.25
2019-04-21T11:36:07.021Z,12.75
2019-04-21T11:39:27.279Z,11.53
2019-04-21T11:42:26.283Z,11.65
2019-04-21T11:45:39.972Z,15.58
2019-04-21T11:48:48.364Z,11.28
2019-04-21T11:51:56.507Z,10.90
2019-04-21T11:55:04.738Z,13.40
2019-04-21T11:58:11.944Z,9.28
2019-04-21T12:01:19.552Z,10.63
2019-04-21T12:04:27.653Z,13.32
2019-04-21T12:07:35.363Z,12.37
2019-04-21T12:10:43.064Z,11.80
2019-04-21T12:13:50.057Z,13.48
2019-04-21T12:16:57.265Z,11.43
2019-04-21T12:20:06.729Z,10.68
2019-04-21T12:23:16.484Z,9.83
2019-04-21T12:26:24.201Z,13.90
2019-04-21T12:29:33.594Z,8.40
2019-04-21T12:32:46.310Z,11.97
2019-04-21T12:39:03.314Z,10.90
2019-04-21T12:42:10.736Z,14.75
2019-04-21T12:45:17.611Z,12.85
2019-04-21T12:48:24.529Z,10.18
2019-04-21T12:51:31.382Z,14.35
2019-04-21T12:57:47.586Z,12.80
2019-04-21T13:00:55.027Z,12.80
2019-04-21T13:04:01.952Z,12.43
2019-04-21T13:07:09.864Z,9.68
2019-04-21T13:10:18.188Z,11.90
2019-04-21T13:13:26.175Z,10.40
2019-04-21T13:19:41.232Z,10.85
2019-04-21T13:22:50.170Z,10.65
2019-04-21T13:25:57.339Z,12.40
2019-04-21T13:32:14.349Z,12.88
2019-04-21T13:35:23.245Z,11.15
2019-04-21T13:38:38.737Z,8.78
2019-04-21T13:41:50.588Z,13.20
2019-04-21T13:44:50.848Z,10.48
2019-04-21T13:47:58.738Z,10.25
2019-04-21T13:51:07.123Z,12.10
2019-04-21T13:54:15.584Z,13.08
2019-04-21T13:57:22.932Z,12.43
2019-04-21T14:00:31.663Z,8.63
2019-04-21T14:03:39.648Z,11.00
2019-04-21T14:06:47.986Z,12.98
2019-04-21T14:10:00.726Z,11.50
2019-04-21T14:13:04.687Z,9.98
2019-04-21T14:16:12.035Z,12.05
2019-04-21T14:19:19.375Z,8.48
2019-04-21T14:25:33.593Z,8.80
2019-04-21T14:28:41.037Z,9.95
2019-04-21T14:31:48.480Z,10.32
2019-04-21T14:34:56.598Z,12.30
2019-04-21T14:38:04.819Z,8.18
2019-04-21T14:41:12.474Z,11.53
2019-04-21T14:44:20.721Z,12.60
2019-04-21T14:47:42.132Z,8.23
2019-04-21T14:50:54.595Z,8.40
2019-04-21T14:54:10.062Z,12.88
2019-04-21T14:57:17.256Z,11.50
2019-04-21T15:00:27.402Z,11.12
2019-04-21T15:03:34.447Z,11.22
2019-04-21T15:06:41.601Z,12.28
2019-04-21T15:10:01.441Z,10.43
2019-04-21T15:12:57.414Z,9.20
2019-04-21T15:19:12.774Z,12.65
2019-04-21T15:22:21.057Z,9.45
2019-04-21T15:25:30.204Z,11.05
2019-04-21T15:28:40.505Z,15.60
2019-04-21T15:31:48.386Z,12.93
2019-04-21T15:34:58.151Z,12.20
2019-04-21T15:38:04.731Z,13.88
2019-04-21T15:41:12.668Z,12.98
2019-04-21T15:44:20.853Z,15.98
2019-04-21T15:47:28.299Z,14.07
2019-04-21T15:53:44.260Z,12.78
2019-04-21T15:56:53.156Z,16.37
2019-04-21T16:00:02.801Z,10.40
2019-04-21T16:03:10.924Z,14.43
2019-04-21T16:06:19.417Z,11.60
2019-04-21T16:09:28.914Z,12.45
2019-04-21T16:15:46.312Z,14.40
2019-04-21T16:18:54.650Z,11.05
2019-04-21T16:22:03.392Z,10.50
2019-04-21T16:28:17.585Z,15.65
2019-04-21T16:31:24.857Z,10.38
2019-04-21T16:34:41.352Z,14.73
2019-04-21T16:37:41.609Z,14.93
2019-04-21T16:40:57.263Z,14.15
2019-04-21T16:43:58.912Z,10.80
2019-04-21T16:47:07.644Z,11.20
2019-04-21T16:50:15.986Z,9.50
2019-04-21T16:53:37.716Z,15.63
2019-04-21T16:56:50.099Z,13.15
2019-04-21T17:00:00.205Z,10.60
2019-04-21T17:03:08.593Z,11.00
2019-04-21T17:06:17.410Z,8.43
2019-04-21T17:09:24.567Z,12.28
2019-04-21T17:12:33.018Z,10.82
2019-04-21T17:15:53.087Z,16.05
2019-04-21T17:18:59.571Z,9.28
2019-04-21T17:21:57.743Z,10.57
2019-04-21T17:25:06.738Z,9.28
2019-04-21T17:28:15.471Z,12.13
2019-04-21T17:31:24.660Z,9.53
2019-04-21T17:34:33.445Z,7.43
2019-04-21T17:37:42.329Z,11.27
2019-04-21T17:40:49.609Z,10.53
2019-04-21T17:43:58.313Z,8.83
2019-04-21T17:47:17.896Z,7.73
2019-04-21T17:50:19.890Z,10.67
2019-04-21T17:53:38.260Z,10.93
2019-04-21T18:03:25.286Z,8.07
2019-04-21T18:06:25.809Z,5.50
2019-04-21T18:09:36.718Z,8.37
2019-04-21T18:12:36.238Z,7.37
2019-04-21T18:15:50.613Z,7.07
2019-04-21T18:18:44.234Z,8.17
2019-04-21T18:22:07.658Z,5.97
2019-04-21T18:25:28.155Z,5.40
2019-04-21T18:28:28.353Z,8.93
2019-04-21T18:31:45.039Z,13.67
2019-04-21T18:34:56.273Z,13.30
2019-04-21T18:38:14.257Z,9.80
2019-04-21T18:45:34.526Z,13.30
2019-04-21T18:48:19.083Z,12.07
2019-04-21T18:51:20.352Z,24.77
2019-04-21T18:54:47.234Z,13.40
2019-04-21T19:00:48.618Z,11.47
2019-04-21T19:03:58.297Z,14.57
2019-04-21T19:10:35.375Z,7.67
2019-04-21T19:14:23.128Z,10.13
2019-04-21T19:20:11.768Z,13.50
2019-04-21T19:23:27.506Z,12.07
2019-04-21T19:26:39.806Z,10.53
2019-04-21T19:29:45.569Z,11.87
2019-04-21T19:32:49.684Z,12.73
2019-04-21T19:35:41.504Z,11.10
2019-04-21T19:38:59.543Z,6.87
2019-04-21T19:42:12.114Z,9.97
2019-04-21T19:45:22.407Z,9.70
2019-04-21T19:48:47.522Z,12.90
2019-04-21T19:51:43.266Z,11.37
2019-04-21T19:54:44.463Z,9.17
2019-04-21T19:57:49.391Z,13.60
2019-04-21T20:04:06.306Z,17.03
2019-04-21T20:07:25.688Z,12.57
2019-04-21T20:10:44.511Z,9.03
2019-04-21T20:14:13.826Z,7.63
2019-04-21T20:17:00.638Z,7.77
2019-04-21T20:19:58.146Z,10.57
2019-04-21T20:23:13.207Z,8.33
2019-04-21T20:26:17.432Z,9.63
2019-04-21T20:29:44.600Z,7.70
2019-04-21T20:32:56.465Z,7.30
2019-04-21T20:36:12.344Z,16.87
2019-04-21T20:39:07.269Z,8.57
2019-04-21T20:42:24.279Z,8.40
2019-04-21T20:48:45.242Z,10.73
2019-04-21T20:52:07.991Z,12.70
2019-04-21T20:55:09.406Z,9.97
2019-04-21T20:58:09.158Z,9.50
2019-04-21T21:07:50.037Z,9.47
2019-04-21T21:10:50.019Z,10.07
2019-04-21T21:14:06.996Z,13.43
2019-04-21T21:17:28.386Z,11.50
2019-04-21T21:20:33.534Z,11.73
2019-04-21T21:29:52.372Z,13.10
2019-04-21T21:36:13.976Z,12.53
2019-04-21T21:39:21.595Z,9.50
2019-04-21T21:42:13.930Z,10.83
2019-04-21T21:45:26.980Z,9.83
2019-04-21T21:48:46.273Z,6.30
2019-04-21T21:51:55.946Z,6.53
2019-04-21T21:54:49.796Z,11.53
2019-04-21T21:58:01.788Z,7.10
2019-04-21T22:01:11.765Z,10.63
2019-04-21T22:04:26.138Z,8.90
2019-04-21T22:07:33.190Z,12.83
2019-04-21T22:10:39.159Z,8.50
2019-04-21T22:13:53.319Z,10.33
2019-04-21T22:17:12.266Z,12.73
2019-04-21T22:20:22.534Z,6.47
2019-04-21T22:23:24.192Z,6.93
2019-04-21T22:26:21.486Z,14.30
2019-04-21T22:29:38.181Z,9.50
2019-04-21T22:32:38.648Z,5.70
2019-04-21T22:35:53.330Z,8.33
2019-04-21T22:39:16.188Z,8.17
2019-04-21T22:42:12.139Z,5.80
2019-04-21T22:45:13.559Z,10.37
2019-04-21T22:48:24.584Z,7.83
2019-04-21T22:51:37.298Z,4.87
2019-04-21T22:54:41.301Z,8.07
2019-04-21T23:00:58.573Z,6.53
2019-04-21T23:04:04.706Z,8.20
2019-04-21T23:07:15.116Z,8.00
2019-04-21T23:10:21.141Z,8.03
2019-04-21T23:13:29.325Z,11.07
2019-04-21T23:16:40.266Z,7.40
2019-04-21T23:20:08.898Z,6.90
2019-04-21T23:23:16.309Z,6.80
2019-04-21T23:26:21.977Z,6.93
2019-04-21T23:29:38.969Z,8.10
2019-04-21T23:32:33.900Z,9.27
2019-04-21T23:35:35.214Z,7.33
2019-04-21T23:38:44.181Z,7.83
2019-04-21T23:41:51.191Z,6.27
2019-04-21T23:44:58.147Z,7.97
2019-04-21T23:48:19.681Z,10.50
2019-04-21T23:51:25.881Z,6.97
2019-04-21T23:54:23.012Z,9.13
2019-04-21T23:57:36.908Z,5.93
